sensor_id;sensor_type;location;lat;lon;timestamp;temperature;humidity
3156;DHT22;1588;50.892;7.082;2022-12-20T00:01:47;10.20;99.90
3156;DHT22;1588;50.892;7.082;2022-12-20T00:06:49;10.30;99.90
3156;DHT22;1588;50.892;7.082;2022-12-20T00:11:52;10.30;99.90
3156;DHT22;1588;50.892;7.082;2022-12-20T00:16:56;10.10;99.90
3156;DHT22;1588;50.892;7.082;2022-12-20T00:21:58;10.30;99.90
3156;DHT22;1588;50.892;7.082;2022-12-20T00:27:00;10.30;99.90
3156;DHT22;1588;50.892;7.082;2022-12-20T00:32:06;10.10;99.90
3156;DHT22;1588;50.892;7.082;2022-12-20T00:37:08;10.10;99.90
3156;DHT22;1588;50.892;7.082;2022-12-20T00:42:11;9.90;99.90
3156;DHT22;1588;50.892;7.082;2022-12-20T00:47:14;10.10;99.90
3156;DHT22;1588;50.892;7.082;2022-12-20T00:52:17;10.20;99.90
3156;DHT22;1588;50.892;7.082;2022-12-20T00:57:19;10.10;99.90
3156;DHT22;1588;50.892;7.082;2022-12-20T01:02:23;9.80;99.90
3156;DHT22;1588;50.892;7.082;2022-12-20T01:07:26;9.80;99.90
3156;DHT22;1588;50.892;7.082;2022-12-20T01:12:29;9.80;99.90
3156;DHT22;1588;50.892;7.082;2022-12-20T01:17:33;9.80;99.90
3156;DHT22;1588;50.892;7.082;2022-12-20T01:22:39;9.70;99.90
3156;DHT22;1588;50.892;7.082;2022-12-20T01:27:42;9.50;99.90
3156;DHT22;1588;50.892;7.082;2022-12-20T01:32:46;9.50;99.90
3156;DHT22;1588;50.892;7.082;2022-12-20T01:37:49;9.80;99.90
3156;DHT22;1588;50.892;7.082;2022-12-20T01:42:51;9.60;99.90
3156;DHT22;1588;50.892;7.082;2022-12-20T01:47:56;9.50;99.90
3156;DHT22;1588;50.892;7.082;2022-12-20T01:53:01;9.40;99.90
3156;DHT22;1588;50.892;7.082;2022-12-20T01:58:07;9.20;99.90
3156;DHT22;1588;50.892;7.082;2022-12-20T02:03:14;9.20;99.90
3156;DHT22;1588;50.892;7.082;2022-12-20T02:08:18;9.10;99.90
3156;DHT22;1588;50.892;7.082;2022-12-20T02:13:26;9.00;99.90
3156;DHT22;1588;50.892;7.082;2022-12-20T02:18:36;9.00;99.90
3156;DHT22;1588;50.892;7.082;2022-12-20T02:24:12;8.90;99.90
3156;DHT22;1588;50.892;7.082;2022-12-20T02:29:24;9.00;99.90
3156;DHT22;1588;50.892;7.082;2022-12-20T02:34:32;8.90;99.90
3156;DHT22;1588;50.892;7.082;2022-12-20T02:39:40;9.00;99.90
3156;DHT22;1588;50.892;7.082;2022-12-20T02:44:49;9.00;99.90
3156;DHT22;1588;50.892;7.082;2022-12-20T02:50:12;9.00;99.90
3156;DHT22;1588;50.892;7.082;2022-12-20T02:55:16;9.00;99.90
3156;DHT22;1588;50.892;7.082;2022-12-20T03:00:20;9.00;99.90
3156;DHT22;1588;50.892;7.082;2022-12-20T03:05:26;8.80;99.90
3156;DHT22;1588;50.892;7.082;2022-12-20T03:10:29;8.80;99.90
3156;DHT22;1588;50.892;7.082;2022-12-20T03:15:32;8.90;99.90
3156;DHT22;1588;50.892;7.082;2022-12-20T03:20:37;8.90;99.90
3156;DHT22;1588;50.892;7.082;2022-12-20T03:25:39;8.80;99.90
3156;DHT22;1588;50.892;7.082;2022-12-20T03:30:42;8.90;99.90
3156;DHT22;1588;50.892;7.082;2022-12-20T03:35:47;8.90;99.90
3156;DHT22;1588;50.892;7.082;2022-12-20T03:40:50;8.80;99.90
3156;DHT22;1588;50.892;7.082;2022-12-20T03:45:52;8.80;99.90
3156;DHT22;1588;50.892;7.082;2022-12-20T03:50:56;8.80;99.90
3156;DHT22;1588;50.892;7.082;2022-12-20T03:55:59;8.70;99.90
3156;DHT22;1588;50.892;7.082;2022-12-20T04:01:02;8.70;99.90
3156;DHT22;1588;50.892;7.082;2022-12-20T04:06:19;8.80;99.90
3156;DHT22;1588;50.892;7.082;2022-12-20T04:11:24;8.80;99.90
3156;DHT22;1588;50.892;7.082;2022-12-20T04:16:28;8.70;99.90
3156;DHT22;1588;50.892;7.082;2022-12-20T04:21:33;8.70;99.90
3156;DHT22;1588;50.892;7.082;2022-12-20T04:26:37;8.60;99.90
3156;DHT22;1588;50.892;7.082;2022-12-20T04:31:39;8.50;99.90
3156;DHT22;1588;50.892;7.082;2022-12-20T04:36:43;8.60;99.90
3156;DHT22;1588;50.892;7.082;2022-12-20T04:41:45;8.60;99.90
3156;DHT22;1588;50.892;7.082;2022-12-20T04:46:48;8.70;99.90
3156;DHT22;1588;50.892;7.082;2022-12-20T04:51:52;8.70;99.90
3156;DHT22;1588;50.892;7.082;2022-12-20T04:56:54;8.60;99.90
3156;DHT22;1588;50.892;7.082;2022-12-20T05:01:59;8.60;99.90
3156;DHT22;1588;50.892;7.082;2022-12-20T05:07:03;8.60;99.90
3156;DHT22;1588;50.892;7.082;2022-12-20T05:12:06;8.70;99.90
3156;DHT22;1588;50.892;7.082;2022-12-20T05:17:08;8.70;99.90
3156;DHT22;1588;50.892;7.082;2022-12-20T05:22:12;8.80;99.90
3156;DHT22;1588;50.892;7.082;2022-12-20T05:27:32;8.80;99.90
3156;DHT22;1588;50.892;7.082;2022-12-20T05:32:34;8.80;99.90
3156;DHT22;1588;50.892;7.082;2022-12-20T05:37:48;8.80;99.90
3156;DHT22;1588;50.892;7.082;2022-12-20T05:42:51;8.70;99.90
3156;DHT22;1588;50.892;7.082;2022-12-20T05:47:53;8.80;99.90
3156;DHT22;1588;50.892;7.082;2022-12-20T05:52:57;8.70;99.90
3156;DHT22;1588;50.892;7.082;2022-12-20T05:57:59;8.60;99.90
3156;DHT22;1588;50.892;7.082;2022-12-20T06:03:02;8.60;99.90
3156;DHT22;1588;50.892;7.082;2022-12-20T06:08:06;8.70;99.90
3156;DHT22;1588;50.892;7.082;2022-12-20T06:13:10;8.60;99.90
3156;DHT22;1588;50.892;7.082;2022-12-20T06:18:13;8.70;99.90
3156;DHT22;1588;50.892;7.082;2022-12-20T06:23:17;8.80;99.90
3156;DHT22;1588;50.892;7.082;2022-12-20T06:28:20;8.90;99.90
3156;DHT22;1588;50.892;7.082;2022-12-20T06:33:29;8.90;99.90
3156;DHT22;1588;50.892;7.082;2022-12-20T06:38:33;8.80;99.90
3156;DHT22;1588;50.892;7.082;2022-12-20T06:43:37;8.90;99.90
3156;DHT22;1588;50.892;7.082;2022-12-20T06:48:40;8.90;99.90
3156;DHT22;1588;50.892;7.082;2022-12-20T06:53:54;8.90;99.90
3156;DHT22;1588;50.892;7.082;2022-12-20T06:58:57;8.90;99.90
3156;DHT22;1588;50.892;7.082;2022-12-20T07:03:59;9.00;99.90
3156;DHT22;1588;50.892;7.082;2022-12-20T07:09:03;9.00;99.90
3156;DHT22;1588;50.892;7.082;2022-12-20T07:14:06;9.00;99.90
3156;DHT22;1588;50.892;7.082;2022-12-20T07:19:10;8.90;99.90
3156;DHT22;1588;50.892;7.082;2022-12-20T07:24:15;8.90;99.90
3156;DHT22;1588;50.892;7.082;2022-12-20T07:29:18;8.90;99.90
3156;DHT22;1588;50.892;7.082;2022-12-20T07:34:20;9.10;99.90
3156;DHT22;1588;50.892;7.082;2022-12-20T07:39:24;9.10;99.90
3156;DHT22;1588;50.892;7.082;2022-12-20T07:44:28;9.00;99.90
3156;DHT22;1588;50.892;7.082;2022-12-20T07:49:30;9.00;99.90
3156;DHT22;1588;50.892;7.082;2022-12-20T07:54:37;9.00;99.90
3156;DHT22;1588;50.892;7.082;2022-12-20T07:59:46;9.10;99.90
3156;DHT22;1588;50.892;7.082;2022-12-20T08:04:50;9.10;99.90
3156;DHT22;1588;50.892;7.082;2022-12-20T08:09:55;9.30;99.90
3156;DHT22;1588;50.892;7.082;2022-12-20T08:14:58;9.30;99.90
3156;DHT22;1588;50.892;7.082;2022-12-20T08:20:00;9.20;99.90
3156;DHT22;1588;50.892;7.082;2022-12-20T08:25:05;9.20;99.90
3156;DHT22;1588;50.892;7.082;2022-12-20T08:30:08;9.10;99.90
3156;DHT22;1588;50.892;7.082;2022-12-20T08:35:11;9.10;99.90
3156;DHT22;1588;50.892;7.082;2022-12-20T08:40:15;9.20;99.90
3156;DHT22;1588;50.892;7.082;2022-12-20T08:45:23;9.30;99.90
3156;DHT22;1588;50.892;7.082;2022-12-20T08:50:25;9.40;99.90
3156;DHT22;1588;50.892;7.082;2022-12-20T08:55:29;9.30;99.90
3156;DHT22;1588;50.892;7.082;2022-12-20T09:00:32;9.50;99.90
3156;DHT22;1588;50.892;7.082;2022-12-20T09:05:34;9.60;99.90
3156;DHT22;1588;50.892;7.082;2022-12-20T09:10:38;9.50;99.90
3156;DHT22;1588;50.892;7.082;2022-12-20T09:15:40;9.50;99.90
3156;DHT22;1588;50.892;7.082;2022-12-20T09:20:45;9.50;99.90
3156;DHT22;1588;50.892;7.082;2022-12-20T09:25:49;9.40;99.90
3156;DHT22;1588;50.892;7.082;2022-12-20T09:30:51;9.40;99.90
3156;DHT22;1588;50.892;7.082;2022-12-20T09:35:58;9.20;99.90
3156;DHT22;1588;50.892;7.082;2022-12-20T09:41:04;9.20;99.90
3156;DHT22;1588;50.892;7.082;2022-12-20T09:46:11;9.20;99.90
3156;DHT22;1588;50.892;7.082;2022-12-20T09:51:30;9.20;99.90
3156;DHT22;1588;50.892;7.082;2022-12-20T09:56:42;9.10;99.90
3156;DHT22;1588;50.892;7.082;2022-12-20T10:01:47;9.10;99.90
3156;DHT22;1588;50.892;7.082;2022-12-20T10:07:03;9.10;99.90
3156;DHT22;1588;50.892;7.082;2022-12-20T10:12:18;9.30;99.90
3156;DHT22;1588;50.892;7.082;2022-12-20T10:17:35;9.40;99.90
3156;DHT22;1588;50.892;7.082;2022-12-20T10:22:44;9.40;99.90
3156;DHT22;1588;50.892;7.082;2022-12-20T10:27:51;9.40;99.90
3156;DHT22;1588;50.892;7.082;2022-12-20T10:32:58;9.20;99.90
3156;DHT22;1588;50.892;7.082;2022-12-20T10:38:02;9.20;99.90
3156;DHT22;1588;50.892;7.082;2022-12-20T10:43:15;9.40;99.90
3156;DHT22;1588;50.892;7.082;2022-12-20T10:48:27;9.50;99.90
3156;DHT22;1588;50.892;7.082;2022-12-20T10:53:30;9.30;99.90
3156;DHT22;1588;50.892;7.082;2022-12-20T10:58:35;9.50;99.90
3156;DHT22;1588;50.892;7.082;2022-12-20T11:03:57;9.50;99.90
3156;DHT22;1588;50.892;7.082;2022-12-20T11:09:22;9.70;99.90
3156;DHT22;1588;50.892;7.082;2022-12-20T11:14:27;9.60;99.90
3156;DHT22;1588;50.892;7.082;2022-12-20T11:19:41;9.70;99.90
3156;DHT22;1588;50.892;7.082;2022-12-20T11:24:51;9.70;99.90
3156;DHT22;1588;50.892;7.082;2022-12-20T11:30:14;9.80;99.90
3156;DHT22;1588;50.892;7.082;2022-12-20T11:35:22;9.80;99.90
3156;DHT22;1588;50.892;7.082;2022-12-20T11:40:30;9.90;99.90
3156;DHT22;1588;50.892;7.082;2022-12-20T11:45:46;9.80;99.90
3156;DHT22;1588;50.892;7.082;2022-12-20T11:51:03;9.70;99.90
3156;DHT22;1588;50.892;7.082;2022-12-20T11:56:17;9.70;99.90
3156;DHT22;1588;50.892;7.082;2022-12-20T12:01:26;9.80;99.90
3156;DHT22;1588;50.892;7.082;2022-12-20T12:06:34;9.70;99.90
3156;DHT22;1588;50.892;7.082;2022-12-20T12:11:42;9.80;99.90
3156;DHT22;1588;50.892;7.082;2022-12-20T12:17:03;9.70;99.90
3156;DHT22;1588;50.892;7.082;2022-12-20T12:22:11;9.60;99.90
3156;DHT22;1588;50.892;7.082;2022-12-20T12:27:23;9.70;99.90
3156;DHT22;1588;50.892;7.082;2022-12-20T12:32:31;9.70;99.90
3156;DHT22;1588;50.892;7.082;2022-12-20T12:38:02;9.50;99.90
3156;DHT22;1588;50.892;7.082;2022-12-20T12:43:30;9.50;99.90
3156;DHT22;1588;50.892;7.082;2022-12-20T12:48:42;9.50;99.90
3156;DHT22;1588;50.892;7.082;2022-12-20T12:53:51;9.60;99.90
3156;DHT22;1588;50.892;7.082;2022-12-20T13:04:54;9.50;99.90
3156;DHT22;1588;50.892;7.082;2022-12-20T13:09:57;9.30;99.90
3156;DHT22;1588;50.892;7.082;2022-12-20T13:15:00;9.20;99.90
3156;DHT22;1588;50.892;7.082;2022-12-20T13:20:17;9.20;99.90
3156;DHT22;1588;50.892;7.082;2022-12-20T13:25:28;9.20;99.90
3156;DHT22;1588;50.892;7.082;2022-12-20T13:30:31;9.10;99.90
3156;DHT22;1588;50.892;7.082;2022-12-20T13:35:58;9.10;99.90
3156;DHT22;1588;50.892;7.082;2022-12-20T13:41:10;9.20;99.90
3156;DHT22;1588;50.892;7.082;2022-12-20T13:46:18;9.20;99.90
3156;DHT22;1588;50.892;7.082;2022-12-20T13:51:25;9.30;99.90
3156;DHT22;1588;50.892;7.082;2022-12-20T13:56:37;9.30;99.90
3156;DHT22;1588;50.892;7.082;2022-12-20T14:01:54;9.30;99.90
3156;DHT22;1588;50.892;7.082;2022-12-20T14:07:00;9.20;99.90
3156;DHT22;1588;50.892;7.082;2022-12-20T14:12:05;9.10;99.90
3156;DHT22;1588;50.892;7.082;2022-12-20T14:17:15;9.00;99.90
3156;DHT22;1588;50.892;7.082;2022-12-20T14:22:19;9.00;99.90
3156;DHT22;1588;50.892;7.082;2022-12-20T14:27:31;9.00;99.90
3156;DHT22;1588;50.892;7.082;2022-12-20T14:32:34;9.10;99.90
3156;DHT22;1588;50.892;7.082;2022-12-20T14:37:39;9.10;99.90
3156;DHT22;1588;50.892;7.082;2022-12-20T14:42:42;9.10;99.90
3156;DHT22;1588;50.892;7.082;2022-12-20T14:47:55;9.00;99.90
3156;DHT22;1588;50.892;7.082;2022-12-20T14:53:00;9.00;99.90
3156;DHT22;1588;50.892;7.082;2022-12-20T14:58:20;8.90;99.90
3156;DHT22;1588;50.892;7.082;2022-12-20T15:03:24;8.80;99.90
3156;DHT22;1588;50.892;7.082;2022-12-20T15:08:29;8.70;99.90
3156;DHT22;1588;50.892;7.082;2022-12-20T15:13:38;8.70;99.90
3156;DHT22;1588;50.892;7.082;2022-12-20T15:18:41;8.70;99.90
3156;DHT22;1588;50.892;7.082;2022-12-20T15:23:47;8.70;99.90
3156;DHT22;1588;50.892;7.082;2022-12-20T15:28:52;8.60;99.90
3156;DHT22;1588;50.892;7.082;2022-12-20T15:33:55;8.60;99.90
3156;DHT22;1588;50.892;7.082;2022-12-20T15:38:59;8.60;99.90
3156;DHT22;1588;50.892;7.082;2022-12-20T15:44:05;8.70;99.90
3156;DHT22;1588;50.892;7.082;2022-12-20T15:49:14;8.70;99.90
3156;DHT22;1588;50.892;7.082;2022-12-20T15:54:26;8.80;99.90
3156;DHT22;1588;50.892;7.082;2022-12-20T15:59:29;8.70;99.90
3156;DHT22;1588;50.892;7.082;2022-12-20T16:04:31;8.50;99.90
3156;DHT22;1588;50.892;7.082;2022-12-20T16:09:35;8.50;99.90
3156;DHT22;1588;50.892;7.082;2022-12-20T16:14:37;8.50;99.90
3156;DHT22;1588;50.892;7.082;2022-12-20T16:19:40;8.50;99.90
3156;DHT22;1588;50.892;7.082;2022-12-20T16:24:45;8.40;99.90
3156;DHT22;1588;50.892;7.082;2022-12-20T16:29:47;8.40;99.90
3156;DHT22;1588;50.892;7.082;2022-12-20T16:34:50;8.50;99.90
3156;DHT22;1588;50.892;7.082;2022-12-20T16:39:54;8.50;99.90
3156;DHT22;1588;50.892;7.082;2022-12-20T16:44:56;8.60;99.90
3156;DHT22;1588;50.892;7.082;2022-12-20T16:49:59;8.70;99.90
3156;DHT22;1588;50.892;7.082;2022-12-20T16:55:17;8.60;99.90
3156;DHT22;1588;50.892;7.082;2022-12-20T17:00:22;8.60;99.90
3156;DHT22;1588;50.892;7.082;2022-12-20T17:05:27;8.70;99.90
3156;DHT22;1588;50.892;7.082;2022-12-20T17:10:31;8.60;99.90
3156;DHT22;1588;50.892;7.082;2022-12-20T17:15:34;8.50;99.90
3156;DHT22;1588;50.892;7.082;2022-12-20T17:20:37;8.40;99.90
3156;DHT22;1588;50.892;7.082;2022-12-20T17:25:41;8.40;99.90
3156;DHT22;1588;50.892;7.082;2022-12-20T17:30:43;8.30;99.90
3156;DHT22;1588;50.892;7.082;2022-12-20T17:35:46;8.30;99.90
3156;DHT22;1588;50.892;7.082;2022-12-20T17:40:50;8.30;99.90
3156;DHT22;1588;50.892;7.082;2022-12-20T17:45:52;8.40;99.90
3156;DHT22;1588;50.892;7.082;2022-12-20T17:50:55;8.50;99.90
3156;DHT22;1588;50.892;7.082;2022-12-20T17:55:59;8.70;99.90
3156;DHT22;1588;50.892;7.082;2022-12-20T18:01:01;8.80;99.90
3156;DHT22;1588;50.892;7.082;2022-12-20T18:06:04;8.70;99.90
3156;DHT22;1588;50.892;7.082;2022-12-20T18:11:09;8.70;99.90
3156;DHT22;1588;50.892;7.082;2022-12-20T18:16:13;8.90;99.90
3156;DHT22;1588;50.892;7.082;2022-12-20T18:21:17;9.00;99.90
3156;DHT22;1588;50.892;7.082;2022-12-20T18:26:24;8.90;99.90
3156;DHT22;1588;50.892;7.082;2022-12-20T18:31:28;8.90;99.90
3156;DHT22;1588;50.892;7.082;2022-12-20T18:36:32;9.00;99.90
3156;DHT22;1588;50.892;7.082;2022-12-20T18:41:37;8.90;99.90
3156;DHT22;1588;50.892;7.082;2022-12-20T18:46:39;8.90;99.90
3156;DHT22;1588;50.892;7.082;2022-12-20T18:51:42;9.00;99.90
3156;DHT22;1588;50.892;7.082;2022-12-20T18:56:48;8.90;99.90
3156;DHT22;1588;50.892;7.082;2022-12-20T19:01:53;8.90;99.90
3156;DHT22;1588;50.892;7.082;2022-12-20T19:06:56;8.80;99.90
3156;DHT22;1588;50.892;7.082;2022-12-20T19:12:00;8.80;99.90
3156;DHT22;1588;50.892;7.082;2022-12-20T19:17:02;8.70;99.90
3156;DHT22;1588;50.892;7.082;2022-12-20T19:22:05;8.90;99.90
3156;DHT22;1588;50.892;7.082;2022-12-20T19:27:08;8.90;99.90
3156;DHT22;1588;50.892;7.082;2022-12-20T19:32:11;8.70;99.90
3156;DHT22;1588;50.892;7.082;2022-12-20T19:37:13;8.60;99.90
3156;DHT22;1588;50.892;7.082;2022-12-20T19:42:23;8.60;99.90
3156;DHT22;1588;50.892;7.082;2022-12-20T19:47:25;8.50;99.90
3156;DHT22;1588;50.892;7.082;2022-12-20T19:52:29;8.60;99.90
3156;DHT22;1588;50.892;7.082;2022-12-20T19:57:33;8.50;99.90
3156;DHT22;1588;50.892;7.082;2022-12-20T20:02:35;8.50;99.90
3156;DHT22;1588;50.892;7.082;2022-12-20T20:07:39;8.40;99.90
3156;DHT22;1588;50.892;7.082;2022-12-20T20:12:43;8.40;99.90
3156;DHT22;1588;50.892;7.082;2022-12-20T20:17:45;8.40;99.90
3156;DHT22;1588;50.892;7.082;2022-12-20T20:22:48;8.40;99.90
3156;DHT22;1588;50.892;7.082;2022-12-20T20:27:51;8.40;99.90
3156;DHT22;1588;50.892;7.082;2022-12-20T20:32:55;8.30;99.90
3156;DHT22;1588;50.892;7.082;2022-12-20T20:37:59;8.30;99.90
3156;DHT22;1588;50.892;7.082;2022-12-20T20:43:03;8.30;99.90
3156;DHT22;1588;50.892;7.082;2022-12-20T20:48:10;8.30;99.90
3156;DHT22;1588;50.892;7.082;2022-12-20T20:53:13;8.20;99.90
3156;DHT22;1588;50.892;7.082;2022-12-20T20:58:17;8.20;99.90
3156;DHT22;1588;50.892;7.082;2022-12-20T21:03:19;8.30;99.90
3156;DHT22;1588;50.892;7.082;2022-12-20T21:08:22;8.30;99.90
3156;DHT22;1588;50.892;7.082;2022-12-20T21:13:26;8.40;99.90
3156;DHT22;1588;50.892;7.082;2022-12-20T21:18:29;8.40;99.90
3156;DHT22;1588;50.892;7.082;2022-12-20T21:23:32;8.50;99.90
3156;DHT22;1588;50.892;7.082;2022-12-20T21:28:39;8.50;99.90
3156;DHT22;1588;50.892;7.082;2022-12-20T21:33:42;8.60;99.90
3156;DHT22;1588;50.892;7.082;2022-12-20T21:38:46;8.60;99.90
3156;DHT22;1588;50.892;7.082;2022-12-20T21:43:54;8.70;99.90
3156;DHT22;1588;50.892;7.082;2022-12-20T21:48:58;8.70;99.90
3156;DHT22;1588;50.892;7.082;2022-12-20T21:54:02;8.60;99.90
3156;DHT22;1588;50.892;7.082;2022-12-20T21:59:08;8.50;99.90
3156;DHT22;1588;50.892;7.082;2022-12-20T22:04:11;8.50;99.90
3156;DHT22;1588;50.892;7.082;2022-12-20T22:09:15;8.40;99.90
3156;DHT22;1588;50.892;7.082;2022-12-20T22:14:19;8.40;99.90
3156;DHT22;1588;50.892;7.082;2022-12-20T22:19:22;8.50;99.90
3156;DHT22;1588;50.892;7.082;2022-12-20T22:24:24;8.40;99.90
3156;DHT22;1588;50.892;7.082;2022-12-20T22:29:33;8.40;99.90
3156;DHT22;1588;50.892;7.082;2022-12-20T22:34:36;8.40;99.90
3156;DHT22;1588;50.892;7.082;2022-12-20T22:39:41;8.40;99.90
3156;DHT22;1588;50.892;7.082;2022-12-20T22:44:44;8.30;99.90
3156;DHT22;1588;50.892;7.082;2022-12-20T22:49:48;8.30;99.90
3156;DHT22;1588;50.892;7.082;2022-12-20T22:54:50;8.30;99.90
3156;DHT22;1588;50.892;7.082;2022-12-20T22:59:54;8.30;99.90
3156;DHT22;1588;50.892;7.082;2022-12-20T23:04:58;8.30;99.90
3156;DHT22;1588;50.892;7.082;2022-12-20T23:10:01;8.30;99.90
3156;DHT22;1588;50.892;7.082;2022-12-20T23:15:08;8.30;99.90
3156;DHT22;1588;50.892;7.082;2022-12-20T23:20:30;8.30;99.90
3156;DHT22;1588;50.892;7.082;2022-12-20T23:25:50;8.20;99.90
3156;DHT22;1588;50.892;7.082;2022-12-20T23:30:57;8.20;99.90
3156;DHT22;1588;50.892;7.082;2022-12-20T23:36:00;8.30;99.90
3156;DHT22;1588;50.892;7.082;2022-12-20T23:41:05;8.30;99.90
3156;DHT22;1588;50.892;7.082;2022-12-20T23:46:11;8.40;99.90
3156;DHT22;1588;50.892;7.082;2022-12-20T23:51:15;8.40;99.90
3156;DHT22;1588;50.892;7.082;2022-12-20T23:56:19;8.50;99.90
